sensor_id;sensor_type;location;lat;lon;timestamp;P1;durP1;ratioP1;P2;durP2;ratioP2
57985;SDS011;43788;42.670;23.330;2023-06-14T00:02:04;0.70;;;0.70;;
57985;SDS011;43788;42.670;23.330;2023-06-14T00:04:29;0.88;;;0.70;;
57985;SDS011;43788;42.670;23.330;2023-06-14T00:06:55;0.70;;;0.70;;
57985;SDS011;43788;42.670;23.330;2023-06-14T00:09:22;1.25;;;0.68;;
57985;SDS011;43788;42.670;23.330;2023-06-14T00:11:48;0.40;;;0.40;;
57985;SDS011;43788;42.670;23.330;2023-06-14T00:14:14;1.35;;;0.70;;
57985;SDS011;43788;42.670;23.330;2023-06-14T00:16:39;0.40;;;0.40;;
57985;SDS011;43788;42.670;23.330;2023-06-14T00:19:07;0.50;;;0.50;;
57985;SDS011;43788;42.670;23.330;2023-06-14T00:21:35;1.73;;;0.63;;
57985;SDS011;43788;42.670;23.330;2023-06-14T00:24:01;0.40;;;0.40;;
57985;SDS011;43788;42.670;23.330;2023-06-14T00:26:27;0.50;;;0.50;;
57985;SDS011;43788;42.670;23.330;2023-06-14T00:28:55;0.60;;;0.60;;
57985;SDS011;43788;42.670;23.330;2023-06-14T00:31:24;0.52;;;0.52;;
57985;SDS011;43788;42.670;23.330;2023-06-14T00:33:49;1.98;;;0.60;;
57985;SDS011;43788;42.670;23.330;2023-06-14T00:36:18;0.40;;;0.40;;
57985;SDS011;43788;42.670;23.330;2023-06-14T00:38:43;0.43;;;0.43;;
57985;SDS011;43788;42.670;23.330;2023-06-14T00:41:09;0.40;;;0.40;;
57985;SDS011;43788;42.670;23.330;2023-06-14T00:43:34;0.50;;;0.50;;
57985;SDS011;43788;42.670;23.330;2023-06-14T00:46:00;0.40;;;0.40;;
57985;SDS011;43788;42.670;23.330;2023-06-14T00:48:25;0.40;;;0.40;;
57985;SDS011;43788;42.670;23.330;2023-06-14T00:50:53;0.47;;;0.47;;
57985;SDS011;43788;42.670;23.330;2023-06-14T00:53:19;0.60;;;0.60;;
57985;SDS011;43788;42.670;23.330;2023-06-14T00:55:50;1.63;;;0.60;;
57985;SDS011;43788;42.670;23.330;2023-06-14T00:58:15;0.52;;;0.52;;
57985;SDS011;43788;42.670;23.330;2023-06-14T01:00:44;0.35;;;0.35;;
57985;SDS011;43788;42.670;23.330;2023-06-14T01:03:10;1.10;;;0.65;;
57985;SDS011;43788;42.670;23.330;2023-06-14T01:05:37;0.50;;;0.50;;
57985;SDS011;43788;42.670;23.330;2023-06-14T01:08:24;0.40;;;0.40;;
57985;SDS011;43788;42.670;23.330;2023-06-14T01:11:04;0.47;;;0.47;;
57985;SDS011;43788;42.670;23.330;2023-06-14T01:13:34;0.40;;;0.40;;
57985;SDS011;43788;42.670;23.330;2023-06-14T01:16:02;0.50;;;0.50;;
57985;SDS011;43788;42.670;23.330;2023-06-14T01:18:28;0.70;;;0.50;;
57985;SDS011;43788;42.670;23.330;2023-06-14T01:20:54;0.52;;;0.50;;
57985;SDS011;43788;42.670;23.330;2023-06-14T01:23:20;0.45;;;0.45;;
57985;SDS011;43788;42.670;23.330;2023-06-14T01:25:47;0.40;;;0.40;;
57985;SDS011;43788;42.670;23.330;2023-06-14T01:28:17;0.60;;;0.60;;
57985;SDS011;43788;42.670;23.330;2023-06-14T01:30:45;0.60;;;0.60;;
57985;SDS011;43788;42.670;23.330;2023-06-14T01:33:16;0.50;;;0.50;;
57985;SDS011;43788;42.670;23.330;2023-06-14T01:35:44;0.50;;;0.50;;
57985;SDS011;43788;42.670;23.330;2023-06-14T01:38:15;0.73;;;0.50;;
57985;SDS011;43788;42.670;23.330;2023-06-14T01:40:42;0.47;;;0.47;;
57985;SDS011;43788;42.670;23.330;2023-06-14T01:43:10;0.50;;;0.50;;
57985;SDS011;43788;42.670;23.330;2023-06-14T01:45:36;0.60;;;0.60;;
57985;SDS011;43788;42.670;23.330;2023-06-14T01:48:02;0.50;;;0.50;;
57985;SDS011;43788;42.670;23.330;2023-06-14T01:50:32;0.50;;;0.50;;
57985;SDS011;43788;42.670;23.330;2023-06-14T01:52:57;0.50;;;0.50;;
57985;SDS011;43788;42.670;23.330;2023-06-14T01:55:23;0.75;;;0.40;;
57985;SDS011;43788;42.670;23.330;2023-06-14T01:57:52;0.50;;;0.50;;
57985;SDS011;43788;42.670;23.330;2023-06-14T02:00:17;0.55;;;0.55;;
57985;SDS011;43788;42.670;23.330;2023-06-14T02:02:43;0.57;;;0.57;;
57985;SDS011;43788;42.670;23.330;2023-06-14T02:05:09;0.50;;;0.50;;
57985;SDS011;43788;42.670;23.330;2023-06-14T02:07:35;0.63;;;0.60;;
57985;SDS011;43788;42.670;23.330;2023-06-14T02:10:01;0.50;;;0.50;;
57985;SDS011;43788;42.670;23.330;2023-06-14T02:12:27;0.73;;;0.70;;
57985;SDS011;43788;42.670;23.330;2023-06-14T02:14:53;0.88;;;0.63;;
57985;SDS011;43788;42.670;23.330;2023-06-14T02:17:19;0.63;;;0.50;;
57985;SDS011;43788;42.670;23.330;2023-06-14T02:19:45;0.60;;;0.60;;
57985;SDS011;43788;42.670;23.330;2023-06-14T02:22:10;0.57;;;0.57;;
57985;SDS011;43788;42.670;23.330;2023-06-14T02:24:36;0.77;;;0.70;;
57985;SDS011;43788;42.670;23.330;2023-06-14T02:27:02;0.82;;;0.50;;
57985;SDS011;43788;42.670;23.330;2023-06-14T02:29:28;0.47;;;0.47;;
57985;SDS011;43788;42.670;23.330;2023-06-14T02:31:54;0.60;;;0.60;;
57985;SDS011;43788;42.670;23.330;2023-06-14T02:34:19;0.63;;;0.63;;
57985;SDS011;43788;42.670;23.330;2023-06-14T02:36:46;0.60;;;0.60;;
57985;SDS011;43788;42.670;23.330;2023-06-14T02:39:13;0.55;;;0.55;;
57985;SDS011;43788;42.670;23.330;2023-06-14T02:41:38;1.33;;;0.80;;
57985;SDS011;43788;42.670;23.330;2023-06-14T02:44:04;0.80;;;0.60;;
57985;SDS011;43788;42.670;23.330;2023-06-14T02:46:30;0.40;;;0.40;;
57985;SDS011;43788;42.670;23.330;2023-06-14T02:48:55;0.60;;;0.60;;
57985;SDS011;43788;42.670;23.330;2023-06-14T02:51:21;1.27;;;0.77;;
57985;SDS011;43788;42.670;23.330;2023-06-14T02:53:47;0.65;;;0.65;;
57985;SDS011;43788;42.670;23.330;2023-06-14T02:56:12;0.50;;;0.50;;
57985;SDS011;43788;42.670;23.330;2023-06-14T02:58:38;0.65;;;0.50;;
57985;SDS011;43788;42.670;23.330;2023-06-14T03:01:07;0.50;;;0.50;;
57985;SDS011;43788;42.670;23.330;2023-06-14T03:03:33;0.70;;;0.70;;
57985;SDS011;43788;42.670;23.330;2023-06-14T03:05:58;0.60;;;0.60;;
57985;SDS011;43788;42.670;23.330;2023-06-14T03:08:29;0.52;;;0.52;;
57985;SDS011;43788;42.670;23.330;2023-06-14T03:10:56;0.60;;;0.60;;
57985;SDS011;43788;42.670;23.330;2023-06-14T03:13:22;0.43;;;0.43;;
57985;SDS011;43788;42.670;23.330;2023-06-14T03:15:48;1.15;;;0.60;;
57985;SDS011;43788;42.670;23.330;2023-06-14T03:18:16;1.60;;;0.70;;
57985;SDS011;43788;42.670;23.330;2023-06-14T03:20:42;0.77;;;0.60;;
57985;SDS011;43788;42.670;23.330;2023-06-14T03:23:07;0.60;;;0.60;;
57985;SDS011;43788;42.670;23.330;2023-06-14T03:25:33;0.50;;;0.50;;
57985;SDS011;43788;42.670;23.330;2023-06-14T03:28:01;4.03;;;0.90;;
57985;SDS011;43788;42.670;23.330;2023-06-14T03:30:27;0.57;;;0.57;;
57985;SDS011;43788;42.670;23.330;2023-06-14T03:32:52;0.60;;;0.60;;
57985;SDS011;43788;42.670;23.330;2023-06-14T03:35:20;0.50;;;0.50;;
57985;SDS011;43788;42.670;23.330;2023-06-14T03:37:46;0.68;;;0.68;;
57985;SDS011;43788;42.670;23.330;2023-06-14T03:40:12;0.95;;;0.55;;
57985;SDS011;43788;42.670;23.330;2023-06-14T03:42:40;0.57;;;0.57;;
57985;SDS011;43788;42.670;23.330;2023-06-14T03:45:06;0.77;;;0.77;;
57985;SDS011;43788;42.670;23.330;2023-06-14T03:47:32;0.73;;;0.73;;
57985;SDS011;43788;42.670;23.330;2023-06-14T03:49:58;1.63;;;0.80;;
57985;SDS011;43788;42.670;23.330;2023-06-14T03:52:26;0.70;;;0.70;;
57985;SDS011;43788;42.670;23.330;2023-06-14T03:54:51;0.55;;;0.55;;
57985;SDS011;43788;42.670;23.330;2023-06-14T03:57:17;0.70;;;0.70;;
57985;SDS011;43788;42.670;23.330;2023-06-14T03:59:43;0.85;;;0.70;;
57985;SDS011;43788;42.670;23.330;2023-06-14T04:02:08;0.50;;;0.50;;
57985;SDS011;43788;42.670;23.330;2023-06-14T04:04:34;0.50;;;0.50;;
57985;SDS011;43788;42.670;23.330;2023-06-14T04:07:00;0.60;;;0.60;;
57985;SDS011;43788;42.670;23.330;2023-06-14T04:09:28;0.50;;;0.50;;
57985;SDS011;43788;42.670;23.330;2023-06-14T04:11:54;0.43;;;0.43;;
57985;SDS011;43788;42.670;23.330;2023-06-14T04:14:21;0.60;;;0.60;;
57985;SDS011;43788;42.670;23.330;2023-06-14T04:16:47;0.70;;;0.70;;
57985;SDS011;43788;42.670;23.330;2023-06-14T04:19:13;0.50;;;0.50;;
57985;SDS011;43788;42.670;23.330;2023-06-14T04:21:39;0.70;;;0.70;;
57985;SDS011;43788;42.670;23.330;2023-06-14T04:24:05;0.50;;;0.50;;
57985;SDS011;43788;42.670;23.330;2023-06-14T04:26:31;2.67;;;0.80;;
57985;SDS011;43788;42.670;23.330;2023-06-14T04:28:58;1.20;;;1.10;;
57985;SDS011;43788;42.670;23.330;2023-06-14T04:31:37;0.73;;;0.73;;
57985;SDS011;43788;42.670;23.330;2023-06-14T04:34:03;0.90;;;0.90;;
57985;SDS011;43788;42.670;23.330;2023-06-14T04:36:34;0.98;;;0.73;;
57985;SDS011;43788;42.670;23.330;2023-06-14T04:39:04;0.80;;;0.80;;
57985;SDS011;43788;42.670;23.330;2023-06-14T04:41:31;0.70;;;0.70;;
57985;SDS011;43788;42.670;23.330;2023-06-14T04:43:59;0.75;;;0.70;;
57985;SDS011;43788;42.670;23.330;2023-06-14T04:46:29;0.73;;;0.73;;
57985;SDS011;43788;42.670;23.330;2023-06-14T04:49:12;6.13;;;1.00;;
57985;SDS011;43788;42.670;23.330;2023-06-14T04:51:40;0.82;;;0.82;;
57985;SDS011;43788;42.670;23.330;2023-06-14T04:54:11;0.85;;;0.85;;
57985;SDS011;43788;42.670;23.330;2023-06-14T04:56:40;0.90;;;0.90;;
57985;SDS011;43788;42.670;23.330;2023-06-14T04:59:07;0.80;;;0.80;;
57985;SDS011;43788;42.670;23.330;2023-06-14T05:01:34;1.27;;;1.17;;
57985;SDS011;43788;42.670;23.330;2023-06-14T05:04:00;1.38;;;1.27;;
57985;SDS011;43788;42.670;23.330;2023-06-14T05:06:26;1.60;;;0.80;;
57985;SDS011;43788;42.670;23.330;2023-06-14T05:08:52;0.80;;;0.80;;
57985;SDS011;43788;42.670;23.330;2023-06-14T05:11:18;1.00;;;1.00;;
57985;SDS011;43788;42.670;23.330;2023-06-14T05:13:44;1.08;;;1.00;;
57985;SDS011;43788;42.670;23.330;2023-06-14T05:16:12;0.80;;;0.80;;
57985;SDS011;43788;42.670;23.330;2023-06-14T05:18:37;1.02;;;0.95;;
57985;SDS011;43788;42.670;23.330;2023-06-14T05:21:05;1.00;;;1.00;;
57985;SDS011;43788;42.670;23.330;2023-06-14T05:23:31;1.20;;;1.10;;
57985;SDS011;43788;42.670;23.330;2023-06-14T05:26:04;1.13;;;1.10;;
57985;SDS011;43788;42.670;23.330;2023-06-14T05:28:57;1.27;;;1.17;;
57985;SDS011;43788;42.670;23.330;2023-06-14T05:31:23;1.45;;;1.35;;
57985;SDS011;43788;42.670;23.330;2023-06-14T05:33:52;1.40;;;1.30;;
57985;SDS011;43788;42.670;23.330;2023-06-14T05:36:23;1.45;;;1.35;;
57985;SDS011;43788;42.670;23.330;2023-06-14T05:38:49;1.27;;;1.17;;
57985;SDS011;43788;42.670;23.330;2023-06-14T05:41:18;1.77;;;1.50;;
57985;SDS011;43788;42.670;23.330;2023-06-14T05:43:48;1.15;;;1.15;;
57985;SDS011;43788;42.670;23.330;2023-06-14T05:46:13;1.38;;;1.27;;
57985;SDS011;43788;42.670;23.330;2023-06-14T05:48:43;1.10;;;1.10;;
57985;SDS011;43788;42.670;23.330;2023-06-14T05:51:18;1.48;;;1.40;;
57985;SDS011;43788;42.670;23.330;2023-06-14T05:53:49;4.82;;;1.35;;
57985;SDS011;43788;42.670;23.330;2023-06-14T05:56:16;1.25;;;1.15;;
57985;SDS011;43788;42.670;23.330;2023-06-14T05:58:45;1.25;;;1.17;;
57985;SDS011;43788;42.670;23.330;2023-06-14T06:01:11;1.40;;;1.30;;
57985;SDS011;43788;42.670;23.330;2023-06-14T06:03:36;1.40;;;1.30;;
57985;SDS011;43788;42.670;23.330;2023-06-14T06:06:02;1.70;;;1.60;;
57985;SDS011;43788;42.670;23.330;2023-06-14T06:08:28;1.20;;;1.20;;
57985;SDS011;43788;42.670;23.330;2023-06-14T06:10:54;1.13;;;1.13;;
57985;SDS011;43788;42.670;23.330;2023-06-14T06:13:21;2.00;;;1.80;;
57985;SDS011;43788;42.670;23.330;2023-06-14T06:15:46;1.50;;;1.40;;
57985;SDS011;43788;42.670;23.330;2023-06-14T06:18:13;1.67;;;1.58;;
57985;SDS011;43788;42.670;23.330;2023-06-14T06:20:44;1.58;;;1.48;;
57985;SDS011;43788;42.670;23.330;2023-06-14T06:23:12;1.60;;;1.50;;
57985;SDS011;43788;42.670;23.330;2023-06-14T06:25:46;1.70;;;1.40;;
57985;SDS011;43788;42.670;23.330;2023-06-14T06:28:12;1.48;;;1.38;;
57985;SDS011;43788;42.670;23.330;2023-06-14T06:30:38;1.50;;;1.40;;
57985;SDS011;43788;42.670;23.330;2023-06-14T06:33:04;1.17;;;1.17;;
57985;SDS011;43788;42.670;23.330;2023-06-14T06:35:33;1.50;;;1.40;;
57985;SDS011;43788;42.670;23.330;2023-06-14T06:38:00;1.70;;;1.60;;
57985;SDS011;43788;42.670;23.330;2023-06-14T06:40:32;1.60;;;1.50;;
57985;SDS011;43788;42.670;23.330;2023-06-14T06:42:58;1.27;;;1.23;;
57985;SDS011;43788;42.670;23.330;2023-06-14T06:45:24;1.90;;;1.80;;
57985;SDS011;43788;42.670;23.330;2023-06-14T06:47:55;1.52;;;1.42;;
57985;SDS011;43788;42.670;23.330;2023-06-14T06:50:22;1.77;;;1.50;;
57985;SDS011;43788;42.670;23.330;2023-06-14T06:52:48;1.30;;;1.25;;
57985;SDS011;43788;42.670;23.330;2023-06-14T06:55:20;1.52;;;1.42;;
57985;SDS011;43788;42.670;23.330;2023-06-14T06:57:47;3.45;;;1.75;;
57985;SDS011;43788;42.670;23.330;2023-06-14T07:00:12;1.10;;;1.10;;
57985;SDS011;43788;42.670;23.330;2023-06-14T07:02:39;1.70;;;1.60;;
57985;SDS011;43788;42.670;23.330;2023-06-14T07:05:05;1.58;;;1.42;;
57985;SDS011;43788;42.670;23.330;2023-06-14T07:07:35;1.95;;;1.60;;
57985;SDS011;43788;42.670;23.330;2023-06-14T07:10:16;3.13;;;1.65;;
57985;SDS011;43788;42.670;23.330;2023-06-14T07:12:43;1.88;;;1.77;;
57985;SDS011;43788;42.670;23.330;2023-06-14T07:15:15;2.85;;;1.30;;
57985;SDS011;43788;42.670;23.330;2023-06-14T07:18:16;1.77;;;1.67;;
57985;SDS011;43788;42.670;23.330;2023-06-14T07:20:45;1.73;;;1.63;;
57985;SDS011;43788;42.670;23.330;2023-06-14T07:23:22;1.58;;;1.48;;
57985;SDS011;43788;42.670;23.330;2023-06-14T07:25:48;1.52;;;1.42;;
57985;SDS011;43788;42.670;23.330;2023-06-14T07:28:16;3.88;;;1.63;;
57985;SDS011;43788;42.670;23.330;2023-06-14T07:30:43;1.80;;;1.70;;
57985;SDS011;43788;42.670;23.330;2023-06-14T07:33:09;1.90;;;1.75;;
57985;SDS011;43788;42.670;23.330;2023-06-14T07:35:36;1.73;;;1.63;;
57985;SDS011;43788;42.670;23.330;2023-06-14T07:38:03;1.90;;;1.80;;
57985;SDS011;43788;42.670;23.330;2023-06-14T07:40:31;1.90;;;1.80;;
57985;SDS011;43788;42.670;23.330;2023-06-14T07:42:58;1.60;;;1.50;;
57985;SDS011;43788;42.670;23.330;2023-06-14T07:45:24;1.65;;;1.55;;
57985;SDS011;43788;42.670;23.330;2023-06-14T07:48:08;1.73;;;1.63;;
57985;SDS011;43788;42.670;23.330;2023-06-14T07:50:34;1.30;;;1.20;;
57985;SDS011;43788;42.670;23.330;2023-06-14T07:52:59;1.75;;;1.65;;
57985;SDS011;43788;42.670;23.330;2023-06-14T07:55:25;1.60;;;1.50;;
57985;SDS011;43788;42.670;23.330;2023-06-14T07:57:51;1.48;;;1.40;;
57985;SDS011;43788;42.670;23.330;2023-06-14T08:00:17;1.30;;;1.30;;
57985;SDS011;43788;42.670;23.330;2023-06-14T08:02:44;1.42;;;1.33;;
57985;SDS011;43788;42.670;23.330;2023-06-14T08:05:10;1.52;;;1.42;;
57985;SDS011;43788;42.670;23.330;2023-06-14T08:07:51;1.50;;;1.40;;
57985;SDS011;43788;42.670;23.330;2023-06-14T08:10:50;1.50;;;1.40;;
57985;SDS011;43788;42.670;23.330;2023-06-14T08:13:25;1.40;;;1.30;;
57985;SDS011;43788;42.670;23.330;2023-06-14T08:15:51;1.50;;;1.40;;
57985;SDS011;43788;42.670;23.330;2023-06-14T08:18:17;1.52;;;1.42;;
57985;SDS011;43788;42.670;23.330;2023-06-14T08:20:45;2.10;;;1.30;;
57985;SDS011;43788;42.670;23.330;2023-06-14T08:23:12;1.20;;;1.20;;
57985;SDS011;43788;42.670;23.330;2023-06-14T08:25:39;0.90;;;0.90;;
57985;SDS011;43788;42.670;23.330;2023-06-14T08:28:06;1.10;;;1.10;;
57985;SDS011;43788;42.670;23.330;2023-06-14T08:30:31;0.85;;;0.85;;
57985;SDS011;43788;42.670;23.330;2023-06-14T08:32:57;2.08;;;1.17;;
57985;SDS011;43788;42.670;23.330;2023-06-14T08:35:24;1.27;;;1.05;;
57985;SDS011;43788;42.670;23.330;2023-06-14T08:37:51;1.00;;;0.90;;
57985;SDS011;43788;42.670;23.330;2023-06-14T08:40:20;1.30;;;1.10;;
57985;SDS011;43788;42.670;23.330;2023-06-14T08:42:51;1.85;;;1.27;;
57985;SDS011;43788;42.670;23.330;2023-06-14T08:45:20;1.40;;;1.30;;
57985;SDS011;43788;42.670;23.330;2023-06-14T08:47:50;1.40;;;1.25;;
57985;SDS011;43788;42.670;23.330;2023-06-14T08:50:19;1.27;;;1.05;;
57985;SDS011;43788;42.670;23.330;2023-06-14T08:53:00;1.50;;;1.40;;
57985;SDS011;43788;42.670;23.330;2023-06-14T08:55:27;1.63;;;1.27;;
57985;SDS011;43788;42.670;23.330;2023-06-14T08:57:55;1.73;;;1.42;;
57985;SDS011;43788;42.670;23.330;2023-06-14T09:00:23;1.50;;;1.40;;
57985;SDS011;43788;42.670;23.330;2023-06-14T09:02:50;1.80;;;1.70;;
57985;SDS011;43788;42.670;23.330;2023-06-14T09:05:25;1.50;;;1.40;;
57985;SDS011;43788;42.670;23.330;2023-06-14T09:07:53;1.30;;;1.30;;
57985;SDS011;43788;42.670;23.330;2023-06-14T09:10:20;0.98;;;0.98;;
57985;SDS011;43788;42.670;23.330;2023-06-14T09:12:47;1.23;;;1.15;;
57985;SDS011;43788;42.670;23.330;2023-06-14T09:15:23;1.40;;;1.30;;
57985;SDS011;43788;42.670;23.330;2023-06-14T09:17:59;1.00;;;1.00;;
57985;SDS011;43788;42.670;23.330;2023-06-14T09:20:46;2.60;;;1.00;;
57985;SDS011;43788;42.670;23.330;2023-06-14T09:23:45;1.50;;;1.40;;
57985;SDS011;43788;42.670;23.330;2023-06-14T09:26:16;1.73;;;1.20;;
57985;SDS011;43788;42.670;23.330;2023-06-14T09:28:48;1.20;;;1.10;;
57985;SDS011;43788;42.670;23.330;2023-06-14T09:31:20;1.80;;;1.10;;
57985;SDS011;43788;42.670;23.330;2023-06-14T09:33:51;2.72;;;1.00;;
57985;SDS011;43788;42.670;23.330;2023-06-14T09:36:21;0.73;;;0.73;;
57985;SDS011;43788;42.670;23.330;2023-06-14T09:39:05;1.30;;;1.20;;
57985;SDS011;43788;42.670;23.330;2023-06-14T09:41:39;1.30;;;1.20;;
57985;SDS011;43788;42.670;23.330;2023-06-14T09:44:09;1.63;;;1.52;;
57985;SDS011;43788;42.670;23.330;2023-06-14T09:46:36;2.65;;;1.20;;
57985;SDS011;43788;42.670;23.330;2023-06-14T09:49:05;1.17;;;1.10;;
57985;SDS011;43788;42.670;23.330;2023-06-14T09:51:42;1.20;;;0.98;;
57985;SDS011;43788;42.670;23.330;2023-06-14T09:54:09;0.95;;;0.95;;
57985;SDS011;43788;42.670;23.330;2023-06-14T09:56:49;1.73;;;1.00;;
57985;SDS011;43788;42.670;23.330;2023-06-14T09:59:27;1.08;;;1.08;;
57985;SDS011;43788;42.670;23.330;2023-06-14T10:04:55;1.20;;;1.10;;
57985;SDS011;43788;42.670;23.330;2023-06-14T10:07:55;1.48;;;1.38;;
57985;SDS011;43788;42.670;23.330;2023-06-14T10:14:12;1.52;;;0.98;;
57985;SDS011;43788;42.670;23.330;2023-06-14T10:22:38;0.88;;;0.88;;
57985;SDS011;43788;42.670;23.330;2023-06-14T10:25:13;1.23;;;1.15;;
57985;SDS011;43788;42.670;23.330;2023-06-14T10:31:02;1.02;;;1.02;;
57985;SDS011;43788;42.670;23.330;2023-06-14T10:36:31;1.17;;;1.10;;
57985;SDS011;43788;42.670;23.330;2023-06-14T10:41:41;1.30;;;1.20;;
57985;SDS011;43788;42.670;23.330;2023-06-14T10:54:22;2.97;;;1.20;;
57985;SDS011;43788;42.670;23.330;2023-06-14T10:56:49;1.45;;;1.30;;
57985;SDS011;43788;42.670;23.330;2023-06-14T10:59:16;0.90;;;0.90;;
57985;SDS011;43788;42.670;23.330;2023-06-14T11:04:47;1.20;;;1.10;;
57985;SDS011;43788;42.670;23.330;2023-06-14T11:07:43;1.10;;;1.00;;
57985;SDS011;43788;42.670;23.330;2023-06-14T11:10:37;1.42;;;1.33;;
57985;SDS011;43788;42.670;23.330;2023-06-14T11:13:07;1.10;;;1.10;;
57985;SDS011;43788;42.670;23.330;2023-06-14T11:15:38;1.20;;;1.20;;
57985;SDS011;43788;42.670;23.330;2023-06-14T11:18:09;1.33;;;1.10;;
57985;SDS011;43788;42.670;23.330;2023-06-14T11:20:37;2.35;;;0.93;;
57985;SDS011;43788;42.670;23.330;2023-06-14T11:23:05;1.00;;;1.00;;
57985;SDS011;43788;42.670;23.330;2023-06-14T11:25:36;0.98;;;0.98;;
57985;SDS011;43788;42.670;23.330;2023-06-14T11:28:03;1.10;;;1.00;;
57985;SDS011;43788;42.670;23.330;2023-06-14T11:30:33;1.10;;;1.10;;
57985;SDS011;43788;42.670;23.330;2023-06-14T11:33:01;1.30;;;1.23;;
57985;SDS011;43788;42.670;23.330;2023-06-14T11:35:32;0.95;;;0.95;;
57985;SDS011;43788;42.670;23.330;2023-06-14T11:38:11;1.20;;;1.10;;
57985;SDS011;43788;42.670;23.330;2023-06-14T11:40:43;1.15;;;1.00;;
57985;SDS011;43788;42.670;23.330;2023-06-14T11:43:09;1.10;;;0.98;;
57985;SDS011;43788;42.670;23.330;2023-06-14T11:45:36;1.00;;;1.00;;
57985;SDS011;43788;42.670;23.330;2023-06-14T11:48:06;1.00;;;0.88;;
57985;SDS011;43788;42.670;23.330;2023-06-14T11:50:39;1.08;;;1.08;;
57985;SDS011;43788;42.670;23.330;2023-06-14T11:53:04;0.90;;;0.90;;
57985;SDS011;43788;42.670;23.330;2023-06-14T11:55:36;0.98;;;0.98;;
57985;SDS011;43788;42.670;23.330;2023-06-14T11:58:02;0.75;;;0.75;;
57985;SDS011;43788;42.670;23.330;2023-06-14T12:00:30;0.90;;;0.90;;
57985;SDS011;43788;42.670;23.330;2023-06-14T12:02:56;1.02;;;0.98;;
57985;SDS011;43788;42.670;23.330;2023-06-14T12:05:25;1.20;;;1.13;;
57985;SDS011;43788;42.670;23.330;2023-06-14T12:07:59;0.98;;;0.98;;
57985;SDS011;43788;42.670;23.330;2023-06-14T12:10:31;1.17;;;1.00;;
57985;SDS011;43788;42.670;23.330;2023-06-14T12:13:05;0.70;;;0.70;;
57985;SDS011;43788;42.670;23.330;2023-06-14T12:15:31;1.63;;;0.90;;
57985;SDS011;43788;42.670;23.330;2023-06-14T12:18:02;0.80;;;0.80;;
57985;SDS011;43788;42.670;23.330;2023-06-14T12:20:32;0.65;;;0.65;;
57985;SDS011;43788;42.670;23.330;2023-06-14T12:23:04;0.85;;;0.85;;
57985;SDS011;43788;42.670;23.330;2023-06-14T12:26:01;0.75;;;0.75;;
57985;SDS011;43788;42.670;23.330;2023-06-14T12:28:31;0.90;;;0.90;;
57985;SDS011;43788;42.670;23.330;2023-06-14T12:31:16;4.75;;;0.90;;
57985;SDS011;43788;42.670;23.330;2023-06-14T12:33:59;0.80;;;0.80;;
57985;SDS011;43788;42.670;23.330;2023-06-14T12:36:24;1.38;;;1.08;;
57985;SDS011;43788;42.670;23.330;2023-06-14T12:38:52;0.80;;;0.80;;
57985;SDS011;43788;42.670;23.330;2023-06-14T12:41:21;1.00;;;1.00;;
57985;SDS011;43788;42.670;23.330;2023-06-14T12:43:47;0.95;;;0.70;;
57985;SDS011;43788;42.670;23.330;2023-06-14T12:46:13;0.77;;;0.77;;
57985;SDS011;43788;42.670;23.330;2023-06-14T12:48:39;1.63;;;0.75;;
57985;SDS011;43788;42.670;23.330;2023-06-14T12:51:08;0.75;;;0.75;;
57985;SDS011;43788;42.670;23.330;2023-06-14T12:53:33;0.60;;;0.60;;
57985;SDS011;43788;42.670;23.330;2023-06-14T12:55:59;0.68;;;0.68;;
57985;SDS011;43788;42.670;23.330;2023-06-14T12:58:27;0.60;;;0.60;;
57985;SDS011;43788;42.670;23.330;2023-06-14T13:00:54;0.63;;;0.63;;
57985;SDS011;43788;42.670;23.330;2023-06-14T13:03:19;0.80;;;0.80;;
57985;SDS011;43788;42.670;23.330;2023-06-14T13:05:46;0.80;;;0.80;;
57985;SDS011;43788;42.670;23.330;2023-06-14T13:08:12;0.80;;;0.80;;
57985;SDS011;43788;42.670;23.330;2023-06-14T13:10:39;0.75;;;0.75;;
57985;SDS011;43788;42.670;23.330;2023-06-14T13:13:10;0.82;;;0.80;;
57985;SDS011;43788;42.670;23.330;2023-06-14T13:15:41;0.90;;;0.90;;
57985;SDS011;43788;42.670;23.330;2023-06-14T13:18:18;0.80;;;0.80;;
57985;SDS011;43788;42.670;23.330;2023-06-14T13:20:45;0.57;;;0.57;;
57985;SDS011;43788;42.670;23.330;2023-06-14T13:23:11;2.67;;;0.90;;
57985;SDS011;43788;42.670;23.330;2023-06-14T13:25:40;3.13;;;0.73;;
57985;SDS011;43788;42.670;23.330;2023-06-14T13:28:06;1.02;;;0.90;;
57985;SDS011;43788;42.670;23.330;2023-06-14T13:30:31;0.60;;;0.60;;
57985;SDS011;43788;42.670;23.330;2023-06-14T13:32:58;0.70;;;0.70;;
57985;SDS011;43788;42.670;23.330;2023-06-14T13:35:26;0.60;;;0.60;;
57985;SDS011;43788;42.670;23.330;2023-06-14T13:37:52;0.70;;;0.70;;
57985;SDS011;43788;42.670;23.330;2023-06-14T13:40:18;0.73;;;0.50;;
57985;SDS011;43788;42.670;23.330;2023-06-14T13:43:00;1.05;;;0.90;;
57985;SDS011;43788;42.670;23.330;2023-06-14T13:45:27;0.80;;;0.80;;
57985;SDS011;43788;42.670;23.330;2023-06-14T13:47:53;0.82;;;0.82;;
57985;SDS011;43788;42.670;23.330;2023-06-14T13:50:20;1.10;;;0.77;;
57985;SDS011;43788;42.670;23.330;2023-06-14T13:52:46;1.48;;;0.82;;
57985;SDS011;43788;42.670;23.330;2023-06-14T13:55:15;2.65;;;0.85;;
57985;SDS011;43788;42.670;23.330;2023-06-14T13:57:47;1.40;;;0.82;;
57985;SDS011;43788;42.670;23.330;2023-06-14T14:00:22;1.20;;;0.90;;
57985;SDS011;43788;42.670;23.330;2023-06-14T14:02:48;1.00;;;1.00;;
57985;SDS011;43788;42.670;23.330;2023-06-14T14:05:15;1.02;;;1.02;;
57985;SDS011;43788;42.670;23.330;2023-06-14T14:07:42;1.02;;;1.00;;
57985;SDS011;43788;42.670;23.330;2023-06-14T14:10:08;2.35;;;1.08;;
57985;SDS011;43788;42.670;23.330;2023-06-14T14:12:35;1.23;;;1.13;;
57985;SDS011;43788;42.670;23.330;2023-06-14T14:15:00;1.00;;;0.82;;
57985;SDS011;43788;42.670;23.330;2023-06-14T14:17:26;0.73;;;0.70;;
57985;SDS011;43788;42.670;23.330;2023-06-14T14:19:52;0.70;;;0.70;;
57985;SDS011;43788;42.670;23.330;2023-06-14T14:22:18;0.75;;;0.75;;
57985;SDS011;43788;42.670;23.330;2023-06-14T14:24:43;1.02;;;0.93;;
57985;SDS011;43788;42.670;23.330;2023-06-14T14:27:12;1.00;;;0.90;;
57985;SDS011;43788;42.670;23.330;2023-06-14T14:29:43;0.95;;;0.95;;
57985;SDS011;43788;42.670;23.330;2023-06-14T14:32:08;0.75;;;0.75;;
57985;SDS011;43788;42.670;23.330;2023-06-14T14:34:38;1.30;;;0.80;;
57985;SDS011;43788;42.670;23.330;2023-06-14T14:37:04;0.90;;;0.90;;
57985;SDS011;43788;42.670;23.330;2023-06-14T14:39:30;3.92;;;1.52;;
57985;SDS011;43788;42.670;23.330;2023-06-14T14:41:55;0.70;;;0.70;;
57985;SDS011;43788;42.670;23.330;2023-06-14T14:44:21;0.80;;;0.80;;
57985;SDS011;43788;42.670;23.330;2023-06-14T14:46:46;1.30;;;0.88;;
57985;SDS011;43788;42.670;23.330;2023-06-14T14:49:13;0.70;;;0.70;;
57985;SDS011;43788;42.670;23.330;2023-06-14T14:51:38;0.90;;;0.90;;
57985;SDS011;43788;42.670;23.330;2023-06-14T14:54:04;0.70;;;0.70;;
57985;SDS011;43788;42.670;23.330;2023-06-14T14:56:30;0.68;;;0.68;;
57985;SDS011;43788;42.670;23.330;2023-06-14T14:58:56;0.80;;;0.80;;
57985;SDS011;43788;42.670;23.330;2023-06-14T15:01:21;1.20;;;1.10;;
57985;SDS011;43788;42.670;23.330;2023-06-14T15:03:47;0.80;;;0.80;;
57985;SDS011;43788;42.670;23.330;2023-06-14T15:06:12;0.95;;;0.95;;
57985;SDS011;43788;42.670;23.330;2023-06-14T15:08:39;2.67;;;1.05;;
57985;SDS011;43788;42.670;23.330;2023-06-14T15:11:04;1.20;;;1.10;;
57985;SDS011;43788;42.670;23.330;2023-06-14T15:13:30;1.00;;;1.00;;
57985;SDS011;43788;42.670;23.330;2023-06-14T15:15:55;1.40;;;1.30;;
57985;SDS011;43788;42.670;23.330;2023-06-14T15:18:21;0.93;;;0.93;;